KRDR/RDR METAR and TAF weather

Enter ICAO airport designator
Station Type Date Time Source
KRDR METAR 2018/12/18 18:56 UTC NOAA

KRDR 181856Z AUTO 21003KT 10SM CLR 04/M02 A2975 RMK AO2 SLP092 T00421020 $


Station Type Date Time Source
KRDR Decoded METAR 2018/12/18 18:56 UTC NOAA

Grand Forks Air Force Base, ND, United States (KRDR) 47-58N 097-24W 278M
Dec 18, 2018 - 01:56 PM EST / 2018.12.18 1856 UTC
Wind: from the SSW (210 degrees) at 3 MPH (3 KT):0
Visibility: 10 mile(s):0
Sky conditions: clear
Temperature: 39.6 F (4.2 C)
Dew Point: 28.4 F (-2.0 C)
Relative Humidity: 63%
Pressure (altimeter): 29.75 in. Hg (1007 hPa)
ob: KRDR 181856Z AUTO 21003KT 10SM CLR 04/M02 A2975 RMK AO2 SLP092 T00421020
cycle: 19

Station Type Date Time Source
KRDR TAF 2018/12/18 18:11 UTC NOAA

TAF KRDR 181800Z 1818/1924 21009KT 9999 SCT250 QNH2961INS
BECMG 1905/1906 21009KT 9999 SCT050 BKN100 QNH2952INS
BECMG 1910/1911 24009KT 9999 SCT025 BKN035 620509 QNH2947INS
TEMPO 1911/1917 9000 -FZRA 690002
BECMG 1920/1921 31009KT 9999 OVC010 620107 QNH2950INS TX05/1821Z TNM03/1905Z


Example: see airport list